createdAt,value
2022-09-14T00:00:14.858Z,9.443729
2022-09-14T00:01:25.207Z,9.443732
2022-09-14T00:02:17.107Z,9.443702
2022-09-14T00:03:14.880Z,9.443702
2022-09-14T00:04:14.841Z,9.443677
2022-09-14T00:05:14.818Z,9.443654
2022-09-14T00:06:14.847Z,9.443694
2022-09-14T00:07:14.837Z,9.443731
2022-09-14T00:08:14.805Z,9.443761
2022-09-14T00:09:14.833Z,9.443763
2022-09-14T00:10:14.793Z,9.443777
2022-09-14T00:11:14.786Z,9.443775
2022-09-14T00:12:14.801Z,9.443750
2022-09-14T00:13:14.783Z,9.443827
2022-09-14T00:14:14.757Z,9.443830
2022-09-14T00:15:14.778Z,9.443815
2022-09-14T00:16:14.791Z,9.443818
2022-09-14T00:17:14.769Z,9.443725
2022-09-14T00:18:14.771Z,9.443721
2022-09-14T00:19:14.733Z,9.443788
2022-09-14T00:20:14.733Z,9.443798
2022-09-14T00:21:14.729Z,9.443785
2022-09-14T00:22:14.743Z,9.443767
2022-09-14T00:23:14.718Z,9.443745
2022-09-14T00:24:14.717Z,9.443739
2022-09-14T00:25:14.694Z,9.443737
2022-09-14T00:26:14.705Z,9.443759
2022-09-14T00:27:14.721Z,9.443761
2022-09-14T00:28:14.685Z,9.443755
2022-09-14T00:29:14.677Z,9.443733
2022-09-14T00:30:14.700Z,9.443714
2022-09-14T00:31:14.852Z,9.443720
2022-09-14T00:32:14.711Z,9.443763
2022-09-14T00:33:14.673Z,9.443766
2022-09-14T00:34:14.641Z,9.443765
2022-09-14T00:35:14.643Z,9.443760
2022-09-14T00:36:14.641Z,9.443706
2022-09-14T00:37:14.629Z,9.443679
2022-09-14T00:38:14.612Z,9.443751
2022-09-14T00:39:14.629Z,9.443729
2022-09-14T00:40:14.720Z,9.443757
2022-09-14T00:41:14.604Z,9.443805
2022-09-14T00:42:14.610Z,9.443767
2022-09-14T00:43:14.593Z,9.443670
2022-09-14T00:44:14.587Z,9.443629
2022-09-14T00:45:14.580Z,9.443725
2022-09-14T00:46:14.632Z,9.443712
2022-09-14T00:47:14.573Z,9.443663
2022-09-14T00:48:14.634Z,9.443715
2022-09-14T00:49:14.549Z,9.443650
2022-09-14T00:50:14.545Z,9.443590
2022-09-14T00:51:14.557Z,9.443600
2022-09-14T00:52:14.554Z,9.443641
2022-09-14T00:53:14.530Z,9.443597
2022-09-14T00:54:14.515Z,9.443685
2022-09-14T00:55:14.519Z,9.443661
2022-09-14T00:56:14.509Z,9.443720
2022-09-14T00:57:14.532Z,9.443693
2022-09-14T00:58:14.510Z,9.443655
2022-09-14T00:59:14.493Z,9.443720
2022-09-14T01:00:14.500Z,9.443714
2022-09-14T01:01:14.521Z,9.443665
2022-09-14T01:02:14.519Z,9.443620
2022-09-14T01:03:14.484Z,9.443639
2022-09-14T01:04:14.484Z,9.443683
2022-09-14T01:05:14.451Z,9.443778
2022-09-14T01:06:14.452Z,9.443851
2022-09-14T01:07:14.436Z,9.443632
2022-09-14T01:08:14.434Z,9.443589
2022-09-14T01:09:14.449Z,9.443608
2022-09-14T01:10:14.425Z,9.443687
2022-09-14T01:11:14.400Z,9.443722
2022-09-14T01:12:14.412Z,9.443707
2022-09-14T01:13:14.394Z,9.443863
2022-09-14T01:14:14.400Z,9.443794
2022-09-14T01:15:14.412Z,9.443510
2022-09-14T01:16:14.473Z,9.443647
2022-09-14T01:17:14.378Z,9.443686
2022-09-14T01:18:14.388Z,9.443734
2022-09-14T01:19:14.377Z,9.443673
2022-09-14T01:20:14.356Z,9.443635
2022-09-14T01:21:14.346Z,9.443699
2022-09-14T01:22:14.348Z,9.443713
2022-09-14T01:23:14.327Z,9.443709
2022-09-14T01:24:14.336Z,9.443608
2022-09-14T01:25:14.333Z,9.443619
2022-09-14T01:26:14.296Z,9.443693
2022-09-14T01:27:14.300Z,9.443719
2022-09-14T01:28:14.279Z,9.443759
2022-09-14T01:29:14.290Z,9.443736
2022-09-14T01:30:14.283Z,9.443765
2022-09-14T01:31:14.317Z,9.443760
2022-09-14T01:32:14.278Z,9.443743
2022-09-14T01:33:14.316Z,9.443689
2022-09-14T01:34:14.268Z,9.443592
2022-09-14T01:35:16.109Z,9.443670
2022-09-14T01:36:15.256Z,9.443672
2022-09-14T01:37:14.236Z,9.443718
2022-09-14T01:38:14.225Z,9.443809
2022-09-14T01:39:14.246Z,9.443744
2022-09-14T01:40:14.262Z,9.443767
2022-09-14T01:41:14.226Z,9.443755
2022-09-14T01:42:14.251Z,9.443760
2022-09-14T01:43:14.193Z,9.443776
2022-09-14T01:44:14.197Z,9.443774
2022-09-14T01:45:14.202Z,9.443794
2022-09-14T01:46:14.231Z,9.443751
2022-09-14T01:47:14.186Z,9.443739
2022-09-14T01:48:14.178Z,9.443717
2022-09-14T01:49:14.165Z,9.443707
2022-09-14T01:50:14.188Z,9.443740
2022-09-14T01:51:14.234Z,9.443687
2022-09-14T01:52:14.144Z,9.443748
2022-09-14T01:53:14.145Z,9.443698
2022-09-14T01:54:14.151Z,9.443720
2022-09-14T01:55:14.112Z,9.443731
2022-09-14T01:56:14.916Z,9.443754
2022-09-14T01:57:14.101Z,9.443736
2022-09-14T01:58:14.121Z,9.443726
2022-09-14T01:59:14.088Z,9.443690
2022-09-14T02:00:14.092Z,9.443693
2022-09-14T02:01:14.195Z,9.443703
2022-09-14T02:02:14.125Z,9.443698
2022-09-14T02:03:14.067Z,9.443658
2022-09-14T02:04:14.075Z,9.443745
2022-09-14T02:05:14.061Z,9.443724
2022-09-14T02:06:14.052Z,9.443726
2022-09-14T02:07:14.082Z,9.443685
2022-09-14T02:08:14.036Z,9.443670
2022-09-14T02:09:14.028Z,9.443693
2022-09-14T02:10:14.027Z,9.443715
2022-09-14T02:11:14.031Z,9.443713
2022-09-14T02:12:14.015Z,9.443753
2022-09-14T02:13:14.051Z,9.443722
2022-09-14T02:14:14.004Z,9.443661
2022-09-14T02:15:13.995Z,9.443743
2022-09-14T02:16:14.037Z,9.443720
2022-09-14T02:17:13.973Z,9.443731
2022-09-14T02:18:13.995Z,9.443715
2022-09-14T02:19:14.000Z,9.443707
2022-09-14T02:20:13.952Z,9.443664
2022-09-14T02:21:13.943Z,9.443611
2022-09-14T02:22:13.985Z,9.443631
2022-09-14T02:23:13.944Z,9.443662
2022-09-14T02:24:13.952Z,9.443724
2022-09-14T02:25:13.933Z,9.443693
2022-09-14T02:26:13.924Z,9.443706
2022-09-14T02:27:13.899Z,9.443666
2022-09-14T02:28:13.919Z,9.443683
2022-09-14T02:29:46.355Z,9.443699
2022-09-14T02:30:13.895Z,9.443692
2022-09-14T02:31:13.916Z,9.443726
2022-09-14T02:32:13.876Z,9.443749
2022-09-14T02:33:13.868Z,9.443673
2022-09-14T02:34:13.855Z,9.443688
2022-09-14T02:35:13.881Z,9.443715
2022-09-14T02:36:13.847Z,9.443707
2022-09-14T02:37:13.852Z,9.443715
2022-09-14T02:38:13.844Z,9.443645
2022-09-14T02:39:13.823Z,9.443755
2022-09-14T02:40:13.944Z,9.443762
2022-09-14T02:41:13.818Z,9.443729
2022-09-14T02:42:13.826Z,9.443698
2022-09-14T02:43:13.819Z,9.443725
2022-09-14T02:44:13.825Z,9.443716
2022-09-14T02:45:13.870Z,9.443741
2022-09-14T02:46:13.822Z,9.443724
2022-09-14T02:47:13.846Z,9.443736
2022-09-14T02:48:13.782Z,9.443716
2022-09-14T02:49:13.754Z,9.443658
2022-09-14T02:50:13.766Z,9.443717
2022-09-14T02:51:13.763Z,9.443665
2022-09-14T02:52:13.743Z,9.443707
2022-09-14T02:53:13.743Z,9.443695
2022-09-14T02:54:13.734Z,9.443651
2022-09-14T02:55:13.735Z,9.443646
2022-09-14T02:56:13.739Z,9.443684
2022-09-14T02:57:13.727Z,9.443705
2022-09-14T02:58:13.758Z,9.443674
2022-09-14T02:59:13.718Z,9.443654
2022-09-14T03:00:13.721Z,9.443726
2022-09-14T03:01:13.752Z,9.443760
2022-09-14T03:02:13.736Z,9.443743
2022-09-14T03:03:13.675Z,9.443727
2022-09-14T03:04:13.669Z,9.443678
2022-09-14T03:05:13.681Z,9.443646
2022-09-14T03:06:13.665Z,9.443696
2022-09-14T03:07:13.696Z,9.443678
2022-09-14T03:08:13.636Z,9.443681
2022-09-14T03:09:13.660Z,9.443687
2022-09-14T03:10:13.624Z,9.443630
2022-09-14T03:11:13.719Z,9.443609
2022-09-14T03:12:13.621Z,9.443580
2022-09-14T03:13:13.604Z,9.443592
2022-09-14T03:14:13.612Z,9.443645
2022-09-14T03:15:13.606Z,9.443628
2022-09-14T03:16:13.614Z,9.443696
2022-09-14T03:17:13.596Z,9.443733
2022-09-14T03:18:14.605Z,9.443650
2022-09-14T03:19:14.580Z,9.443662
2022-09-14T03:20:13.564Z,9.443575
2022-09-14T03:21:13.573Z,9.443684
2022-09-14T03:22:13.577Z,9.443649
2022-09-14T03:23:13.554Z,9.443712
2022-09-14T03:24:13.553Z,9.443758
2022-09-14T03:25:13.529Z,9.443905
2022-09-14T03:26:13.524Z,9.443539
2022-09-14T03:27:13.514Z,9.443533
2022-09-14T03:28:13.504Z,9.443528
2022-09-14T03:29:13.504Z,9.443550
2022-09-14T03:30:13.513Z,9.443564
2022-09-14T03:31:13.585Z,9.443615
2022-09-14T03:32:13.489Z,9.443600
2022-09-14T03:33:13.475Z,9.443537
2022-09-14T03:34:13.476Z,9.443709
2022-09-14T03:35:13.464Z,9.443451
2022-09-14T03:36:13.473Z,9.443674
2022-09-14T03:37:13.453Z,9.443771
2022-09-14T03:38:13.432Z,9.443533
2022-09-14T03:39:13.432Z,9.443535
2022-09-14T03:40:15.940Z,9.443493
2022-09-14T03:41:13.455Z,9.443366
2022-09-14T03:42:13.419Z,9.443564
2022-09-14T03:43:13.413Z,9.443545
2022-09-14T03:44:13.396Z,9.443544
2022-09-14T03:45:13.412Z,9.443473
2022-09-14T03:46:13.455Z,9.443634
2022-09-14T03:47:13.380Z,9.443336
2022-09-14T03:48:13.376Z,9.443439
2022-09-14T03:49:13.364Z,9.443559
2022-09-14T03:50:13.356Z,9.443635
2022-09-14T03:51:14.377Z,9.443675
2022-09-14T03:52:13.356Z,9.443549
2022-09-14T03:53:13.332Z,9.443010
2022-09-14T03:54:13.356Z,9.443456
2022-09-14T03:55:13.331Z,9.443488
2022-09-14T03:56:13.316Z,9.443662
2022-09-14T03:57:13.331Z,9.443501
2022-09-14T03:58:13.324Z,9.443735
2022-09-14T03:59:13.302Z,9.443794
2022-09-14T04:00:13.306Z,9.443695
2022-09-14T04:01:13.283Z,9.443695
2022-09-14T04:02:13.354Z,9.443695
2022-09-14T04:03:13.314Z,9.443695
2022-09-14T04:04:13.263Z,9.443695
2022-09-14T04:05:13.268Z,9.443695
2022-09-14T04:06:13.264Z,9.443108
2022-09-14T04:07:13.251Z,9.443470
2022-09-14T04:08:13.275Z,9.443358
2022-09-14T04:09:13.227Z,9.443466
2022-09-14T04:10:13.224Z,9.443697
2022-09-14T04:11:13.219Z,9.443824
2022-09-14T04:12:13.228Z,9.443789
2022-09-14T04:13:13.215Z,9.443764
2022-09-14T04:14:13.212Z,9.443465
2022-09-14T04:15:13.357Z,9.443427
2022-09-14T04:16:13.238Z,9.443442
2022-09-14T04:17:13.167Z,9.443488
2022-09-14T04:18:13.168Z,9.443628
2022-09-14T04:19:13.175Z,9.443805
2022-09-14T04:20:13.190Z,9.443634
2022-09-14T04:21:13.153Z,9.443682
2022-09-14T04:22:13.168Z,9.443737
2022-09-14T04:23:13.144Z,9.443743
2022-09-14T04:24:15.843Z,9.443702
2022-09-14T04:25:14.172Z,9.443874
2022-09-14T04:26:13.128Z,9.444000
2022-09-14T04:27:13.119Z,9.443565
2022-09-14T04:28:20.848Z,9.443719
2022-09-14T04:29:15.106Z,9.443705
2022-09-14T04:30:13.114Z,9.443766
2022-09-14T04:31:13.213Z,9.443658
2022-09-14T04:32:13.093Z,9.443641
2022-09-14T04:33:13.090Z,9.443688
2022-09-14T04:34:13.092Z,9.443727
2022-09-14T04:35:13.063Z,9.443654
2022-09-14T04:36:14.083Z,9.443641
2022-09-14T04:37:13.067Z,9.443536
2022-09-14T04:38:13.047Z,9.443620
2022-09-14T04:39:13.042Z,9.443702
2022-09-14T04:40:13.172Z,9.443705
2022-09-14T04:41:13.052Z,9.443769
2022-09-14T04:42:13.010Z,9.443852
2022-09-14T04:43:13.015Z,9.443781
2022-09-14T04:44:13.012Z,9.443718
2022-09-14T04:45:13.023Z,9.443623
2022-09-14T04:46:13.080Z,9.443617
2022-09-14T04:47:13.028Z,9.443713
2022-09-14T04:48:12.974Z,9.443418
2022-09-14T04:49:12.996Z,9.443507
2022-09-14T04:50:12.975Z,9.443657
2022-09-14T04:51:12.959Z,9.443524
2022-09-14T04:52:13.031Z,9.443483
2022-09-14T04:53:12.968Z,9.443576
2022-09-14T04:54:12.955Z,9.443581
2022-09-14T04:55:12.929Z,9.443661
2022-09-14T04:56:13.509Z,9.443674
2022-09-14T04:57:12.913Z,9.443677
2022-09-14T04:58:12.998Z,9.443633
2022-09-14T04:59:12.936Z,9.443553
2022-09-14T05:00:13.552Z,9.443566
2022-09-14T05:01:12.926Z,9.443542
2022-09-14T05:02:12.961Z,9.443555
2022-09-14T05:03:13.008Z,9.443705
2022-09-14T05:04:12.918Z,9.443773
2022-09-14T05:05:12.903Z,9.443714
2022-09-14T05:06:12.862Z,9.443734
2022-09-14T05:07:12.926Z,9.443742
2022-09-14T05:08:12.918Z,9.443684
2022-09-14T05:09:12.835Z,9.443739
2022-09-14T05:10:12.855Z,9.443639
2022-09-14T05:11:12.823Z,9.443689
2022-09-14T05:12:12.819Z,9.443700
2022-09-14T05:13:14.064Z,9.443707
2022-09-14T05:14:12.811Z,9.443707
2022-09-14T05:15:12.814Z,9.443740
2022-09-14T05:16:12.841Z,9.443733
2022-09-14T05:17:12.820Z,9.443730
2022-09-14T05:18:12.796Z,9.443715
2022-09-14T05:19:12.791Z,9.443741
2022-09-14T05:20:12.782Z,9.443754
2022-09-14T05:21:12.757Z,9.443692
2022-09-14T05:22:12.753Z,9.443665
2022-09-14T05:23:13.452Z,9.443689
2022-09-14T05:24:12.758Z,9.443716
2022-09-14T05:25:12.744Z,9.443703
2022-09-14T05:26:12.720Z,9.443752
2022-09-14T05:27:12.760Z,9.443669
2022-09-14T05:28:12.705Z,9.443686
2022-09-14T05:29:12.697Z,9.443743
2022-09-14T05:30:12.737Z,9.443745
2022-09-14T05:31:12.720Z,9.443729
2022-09-14T05:32:12.685Z,9.443735
2022-09-14T05:33:12.677Z,9.443795
2022-09-14T05:34:12.706Z,9.443748
2022-09-14T05:35:12.728Z,9.443719
2022-09-14T05:36:12.658Z,9.443720
2022-09-14T05:37:12.654Z,9.443696
2022-09-14T05:38:12.657Z,9.443715
2022-09-14T05:39:12.623Z,9.443684
2022-09-14T05:40:12.759Z,9.443657
2022-09-14T05:41:12.624Z,9.443683
2022-09-14T05:42:12.617Z,9.443740
2022-09-14T05:43:12.600Z,9.443715
2022-09-14T05:44:12.575Z,9.443686
2022-09-14T05:45:12.588Z,9.443740
2022-09-14T05:46:12.655Z,9.443771
2022-09-14T05:47:12.568Z,9.443824
2022-09-14T05:48:12.560Z,9.443801
2022-09-14T05:49:12.564Z,9.443684
2022-09-14T05:50:12.576Z,9.443647
2022-09-14T05:51:12.552Z,9.443663
2022-09-14T05:52:12.548Z,9.443597
2022-09-14T05:53:12.715Z,9.443654
2022-09-14T05:54:12.523Z,9.443654
2022-09-14T05:55:12.509Z,9.443563
2022-09-14T05:56:12.513Z,9.443610
2022-09-14T05:57:12.531Z,9.443708
2022-09-14T05:58:12.599Z,9.443802
2022-09-14T05:59:12.482Z,9.443624
2022-09-14T06:00:12.496Z,9.443583
2022-09-14T06:01:12.477Z,9.443689
2022-09-14T06:02:16.325Z,9.443706
2022-09-14T06:03:14.494Z,9.443653
2022-09-14T06:04:12.461Z,9.443788
2022-09-14T06:05:12.501Z,9.443860
2022-09-14T06:06:12.442Z,9.443913
2022-09-14T06:07:18.800Z,9.443905
2022-09-14T06:08:14.454Z,9.443783
2022-09-14T06:09:12.422Z,9.443810
2022-09-14T06:10:12.453Z,9.443570
2022-09-14T06:11:12.418Z,9.443681
2022-09-14T06:12:12.407Z,9.443857
2022-09-14T06:13:12.444Z,9.443758
2022-09-14T06:14:12.403Z,9.443757
2022-09-14T06:15:12.404Z,9.443745
2022-09-14T06:16:12.377Z,9.443731
2022-09-14T06:17:12.360Z,9.443757
2022-09-14T06:18:12.357Z,9.443748
2022-09-14T06:19:12.390Z,9.443775
2022-09-14T06:20:12.344Z,9.443755
2022-09-14T06:21:12.354Z,9.443712
2022-09-14T06:22:12.326Z,9.443740
2022-09-14T06:23:12.346Z,9.443727
2022-09-14T06:24:12.322Z,9.443769
2022-09-14T06:25:12.318Z,9.443746
2022-09-14T06:26:12.302Z,9.443707
2022-09-14T06:27:12.312Z,9.443722
2022-09-14T06:28:12.295Z,9.443743
2022-09-14T06:29:12.324Z,9.443725
2022-09-14T06:30:13.044Z,9.443687
2022-09-14T06:31:12.268Z,9.443674
2022-09-14T06:32:12.274Z,9.443746
2022-09-14T06:33:12.255Z,9.443752
2022-09-14T06:34:12.291Z,9.443727
2022-09-14T06:35:12.607Z,9.443737
2022-09-14T06:36:13.239Z,9.443726
2022-09-14T06:37:12.242Z,9.443706
2022-09-14T06:38:12.249Z,9.443736
2022-09-14T06:39:12.244Z,9.443716
2022-09-14T06:40:12.288Z,9.443707
2022-09-14T06:41:12.201Z,9.443716
2022-09-14T06:42:12.186Z,9.443827
2022-09-14T06:43:12.195Z,9.443738
2022-09-14T06:44:12.194Z,9.443730
2022-09-14T06:45:12.190Z,9.443752
2022-09-14T06:46:12.178Z,9.443708
2022-09-14T06:47:12.178Z,9.443731
2022-09-14T06:48:12.158Z,9.443725
2022-09-14T06:49:12.134Z,9.443726
2022-09-14T06:50:12.153Z,9.443673
2022-09-14T06:51:12.120Z,9.443717
2022-09-14T06:52:12.145Z,9.443702
2022-09-14T06:53:12.138Z,9.443701
2022-09-14T06:54:12.106Z,9.443719
2022-09-14T06:55:12.110Z,9.443734
2022-09-14T06:56:12.166Z,9.443735
2022-09-14T06:57:12.091Z,9.443734
2022-09-14T06:58:12.094Z,9.443724
2022-09-14T06:59:12.078Z,9.443732
2022-09-14T07:00:12.078Z,9.443760
2022-09-14T07:01:12.115Z,9.443750
2022-09-14T07:02:12.144Z,9.443741
2022-09-14T07:03:12.119Z,9.443742
2022-09-14T07:04:12.046Z,9.443741
2022-09-14T07:05:12.054Z,9.443754
2022-09-14T07:06:12.050Z,9.443769
2022-09-14T07:07:12.062Z,9.443746
2022-09-14T07:08:12.525Z,9.443765
2022-09-14T07:09:13.017Z,9.443792
2022-09-14T07:10:12.005Z,9.443764
2022-09-14T07:11:12.191Z,9.443728
2022-09-14T07:12:12.017Z,9.443769
2022-09-14T07:13:11.994Z,9.443762
2022-09-14T07:14:11.987Z,9.443750
2022-09-14T07:15:11.974Z,9.443753
2022-09-14T07:16:11.979Z,9.443736
2022-09-14T07:17:12.026Z,9.443758
2022-09-14T07:18:11.970Z,9.443769
2022-09-14T07:19:11.962Z,9.443764
2022-09-14T07:20:11.965Z,9.443777
2022-09-14T07:21:11.943Z,9.443739
2022-09-14T07:22:11.949Z,9.443769
2022-09-14T07:23:11.949Z,9.443789
2022-09-14T07:24:11.943Z,9.443809
2022-09-14T07:25:11.915Z,9.443714
2022-09-14T07:26:11.938Z,9.443683
2022-09-14T07:27:11.920Z,9.443699
2022-09-14T07:28:11.912Z,9.443723
2022-09-14T07:29:11.919Z,9.443815
2022-09-14T07:30:11.917Z,9.443852
2022-09-14T07:31:11.923Z,9.443830
2022-09-14T07:32:11.914Z,9.443867
2022-09-14T07:33:11.874Z,9.443881
2022-09-14T07:34:11.852Z,9.443788
2022-09-14T07:35:11.855Z,9.443805
2022-09-14T07:36:11.847Z,9.443863
2022-09-14T07:37:11.859Z,9.443897
2022-09-14T07:38:11.858Z,9.443851
2022-09-14T07:39:11.838Z,9.443856
2022-09-14T07:40:11.864Z,9.443769
2022-09-14T07:41:11.847Z,9.443833
2022-09-14T07:42:11.835Z,9.444000
2022-09-14T07:43:11.815Z,9.443997
2022-09-14T07:44:11.832Z,9.444018
2022-09-14T07:45:11.784Z,9.443876
2022-09-14T07:46:11.816Z,9.443811
2022-09-14T07:47:11.790Z,9.443814
2022-09-14T07:48:11.796Z,9.443990
2022-09-14T07:49:11.793Z,9.443815
2022-09-14T07:50:11.751Z,9.443760
2022-09-14T07:51:11.762Z,9.443752
2022-09-14T07:52:11.747Z,9.443709
2022-09-14T07:53:11.738Z,9.443788
2022-09-14T07:54:11.743Z,9.443820
2022-09-14T07:55:11.763Z,9.443797
2022-09-14T07:56:11.743Z,9.443738
2022-09-14T07:57:11.705Z,9.443675
2022-09-14T07:58:12.743Z,9.443669
2022-09-14T07:59:34.631Z,9.443790
2022-09-14T08:00:13.721Z,9.443821
2022-09-14T08:01:11.751Z,9.443857
2022-09-14T08:02:11.709Z,9.443750
2022-09-14T08:03:11.671Z,9.443776
2022-09-14T08:04:11.669Z,9.443790
2022-09-14T08:05:11.662Z,9.443803
2022-09-14T08:06:11.686Z,9.443875
2022-09-14T08:07:11.634Z,9.443708
2022-09-14T08:08:11.638Z,9.443677
2022-09-14T08:09:11.674Z,9.443666
2022-09-14T08:10:11.647Z,9.443663
2022-09-14T08:11:11.623Z,9.443631
2022-09-14T08:12:11.649Z,9.443651
2022-09-14T08:13:11.598Z,9.443620
2022-09-14T08:14:11.721Z,9.443614
2022-09-14T08:15:11.602Z,9.443676
2022-09-14T08:16:12.604Z,9.443667
2022-09-14T08:17:11.582Z,9.443667
2022-09-14T08:18:11.636Z,9.443638
2022-09-14T08:19:11.562Z,9.443625
2022-09-14T08:20:11.563Z,9.443637
2022-09-14T08:21:11.572Z,9.443668
2022-09-14T08:22:11.575Z,9.443681
2022-09-14T08:23:11.541Z,9.443670
2022-09-14T08:24:11.530Z,9.443716
2022-09-14T08:25:11.538Z,9.443701
2022-09-14T08:26:11.523Z,9.443658
2022-09-14T08:27:12.327Z,9.443615
2022-09-14T08:28:11.512Z,9.443613
2022-09-14T08:29:11.519Z,9.443639
2022-09-14T08:30:37.527Z,9.443624
2022-09-14T08:31:11.593Z,9.443606
2022-09-14T08:32:11.567Z,9.443664
2022-09-14T08:33:11.497Z,9.443655
2022-09-14T08:34:11.500Z,9.443707
2022-09-14T08:35:11.491Z,9.443685
2022-09-14T08:36:11.565Z,9.443689
2022-09-14T08:37:11.996Z,9.443732
2022-09-14T08:38:11.452Z,9.443727
2022-09-14T08:39:11.441Z,9.443686
2022-09-14T08:40:11.436Z,9.443707
2022-09-14T08:41:11.416Z,9.443722
2022-09-14T08:42:11.422Z,9.443690
2022-09-14T08:43:11.416Z,9.443682
2022-09-14T08:44:11.400Z,9.443731
2022-09-14T08:45:11.404Z,9.443718
2022-09-14T08:46:11.433Z,9.443710
2022-09-14T08:47:11.371Z,9.443697
2022-09-14T08:48:11.396Z,9.443679
2022-09-14T08:49:11.401Z,9.443670
2022-09-14T08:50:11.382Z,9.443637
2022-09-14T08:51:11.347Z,9.443662
2022-09-14T08:52:11.344Z,9.443656
2022-09-14T08:53:11.341Z,9.443657
2022-09-14T08:54:11.324Z,9.443682
2022-09-14T08:55:11.352Z,9.443711
2022-09-14T08:56:11.320Z,9.443711
2022-09-14T08:57:11.311Z,9.443670
2022-09-14T08:58:11.308Z,9.443673
2022-09-14T08:59:11.309Z,9.443674
2022-09-14T09:00:11.352Z,9.443665
2022-09-14T09:01:11.362Z,9.443641
2022-09-14T09:02:11.398Z,9.443655
2022-09-14T09:03:11.272Z,9.443659
2022-09-14T09:04:11.355Z,9.443658
2022-09-14T09:05:45.054Z,9.443670
2022-09-14T09:06:15.593Z,9.443691
2022-09-14T09:07:12.226Z,9.443774
2022-09-14T09:08:11.246Z,9.443816
2022-09-14T09:09:11.221Z,9.443880
2022-09-14T09:10:11.305Z,9.443689
2022-09-14T09:11:11.232Z,9.443684
2022-09-14T09:12:11.212Z,9.443703
2022-09-14T09:13:12.201Z,9.443706
2022-09-14T09:14:14.058Z,9.443721
2022-09-14T09:15:12.179Z,9.443690
2022-09-14T09:16:11.260Z,9.443748
2022-09-14T09:17:11.183Z,9.443741
2022-09-14T09:18:11.170Z,9.443777
2022-09-14T09:19:11.163Z,9.443704
2022-09-14T09:20:11.149Z,9.443674
2022-09-14T09:21:11.154Z,9.443690
2022-09-14T09:22:11.187Z,9.443765
2022-09-14T09:23:11.134Z,9.443784
2022-09-14T09:24:11.177Z,9.443742
2022-09-14T09:25:11.116Z,9.443755
2022-09-14T09:26:11.121Z,9.443744
2022-09-14T09:27:11.162Z,9.443739
2022-09-14T09:28:11.125Z,9.443708
2022-09-14T09:29:11.136Z,9.443706
2022-09-14T09:30:11.113Z,9.443762
2022-09-14T09:31:14.650Z,9.443753
2022-09-14T09:32:12.103Z,9.443729
2022-09-14T09:33:11.077Z,9.443717
2022-09-14T09:34:11.161Z,9.443744
2022-09-14T09:35:11.076Z,9.443789
2022-09-14T09:36:11.088Z,9.443721
2022-09-14T09:37:11.049Z,9.443753
2022-09-14T09:38:11.093Z,9.443657
2022-09-14T09:39:11.039Z,9.443646
2022-09-14T09:40:11.122Z,9.443650
2022-09-14T09:41:11.028Z,9.443760
2022-09-14T09:42:11.025Z,9.443788
2022-09-14T09:43:11.016Z,9.443772
2022-09-14T09:44:11.002Z,9.443765
2022-09-14T09:45:11.008Z,9.443646
2022-09-14T09:46:11.044Z,9.443671
2022-09-14T09:47:11.096Z,9.443677
2022-09-14T09:48:10.966Z,9.443716
2022-09-14T09:49:11.011Z,9.443722
2022-09-14T09:50:10.968Z,9.443741
2022-09-14T09:51:12.009Z,9.443708
2022-09-14T09:52:11.009Z,9.443741
2022-09-14T09:53:11.001Z,9.443725
2022-09-14T09:54:10.970Z,9.443707
2022-09-14T09:55:10.937Z,9.443715
2022-09-14T09:56:10.972Z,9.443806
2022-09-14T09:57:10.928Z,9.443841
2022-09-14T09:58:10.914Z,9.443921
2022-09-14T09:59:10.928Z,9.443913
2022-09-14T10:00:10.901Z,9.443853
2022-09-14T10:01:12.616Z,9.443797
2022-09-14T10:02:11.967Z,9.443774
2022-09-14T10:03:10.879Z,9.443738
2022-09-14T10:04:10.868Z,9.443776
2022-09-14T10:05:10.926Z,9.443784
2022-09-14T10:06:10.863Z,9.443755
2022-09-14T10:07:10.847Z,9.443748
2022-09-14T10:08:11.695Z,9.443772
2022-09-14T10:09:11.863Z,9.443740
2022-09-14T10:10:10.864Z,9.443789
2022-09-14T10:11:10.843Z,9.443788
2022-09-14T10:12:10.820Z,9.443809
2022-09-14T10:13:10.807Z,9.443811
2022-09-14T10:14:10.851Z,9.443810
2022-09-14T10:15:10.814Z,9.443828
2022-09-14T10:16:10.844Z,9.443874
2022-09-14T10:17:10.785Z,9.443832
2022-09-14T10:18:10.788Z,9.443869
2022-09-14T10:19:10.787Z,9.443888
2022-09-14T10:20:10.814Z,9.443829
2022-09-14T10:21:10.777Z,9.443823
2022-09-14T10:22:13.510Z,9.443810
2022-09-14T10:23:11.773Z,9.443814
2022-09-14T10:24:10.741Z,9.443870
2022-09-14T10:25:10.889Z,9.443847
2022-09-14T10:26:10.774Z,9.443847
2022-09-14T10:27:10.725Z,9.443885
2022-09-14T10:28:10.708Z,9.443798
2022-09-14T10:29:10.717Z,9.443796
2022-09-14T10:30:10.758Z,9.443813
2022-09-14T10:31:10.774Z,9.443726
2022-09-14T10:32:10.724Z,9.443705
2022-09-14T10:33:10.696Z,9.443712
2022-09-14T10:34:14.306Z,9.443595
2022-09-14T10:35:11.682Z,9.443571
2022-09-14T10:36:10.664Z,9.443637
2022-09-14T10:37:11.780Z,9.443686
2022-09-14T10:38:10.668Z,9.443624
2022-09-14T10:39:10.715Z,9.443698
2022-09-14T10:40:10.758Z,9.443713
2022-09-14T10:41:10.664Z,9.443637
2022-09-14T10:42:10.633Z,9.443636
2022-09-14T10:43:10.628Z,9.443692
2022-09-14T10:44:10.616Z,9.443755
2022-09-14T10:45:10.637Z,9.443708
2022-09-14T10:46:10.670Z,9.443701
2022-09-14T10:47:10.605Z,9.443669
2022-09-14T10:48:10.596Z,9.443714
2022-09-14T10:49:10.608Z,9.443661
2022-09-14T10:50:10.580Z,9.443668
2022-09-14T10:51:10.600Z,9.443680
2022-09-14T10:52:10.561Z,9.443649
2022-09-14T10:53:10.568Z,9.443650
2022-09-14T10:54:10.584Z,9.443669
2022-09-14T10:55:10.567Z,9.443621
2022-09-14T10:56:10.544Z,9.443652
2022-09-14T10:57:10.548Z,9.443702
2022-09-14T10:58:14.499Z,9.443678
2022-09-14T10:59:12.517Z,9.443705
2022-09-14T11:00:10.562Z,9.443645
2022-09-14T11:01:10.505Z,9.443653
2022-09-14T11:02:10.671Z,9.443658
2022-09-14T11:03:10.600Z,9.443706
2022-09-14T11:04:10.541Z,9.443758
2022-09-14T11:05:10.477Z,9.443745
2022-09-14T11:06:10.481Z,9.443734
2022-09-14T11:07:10.478Z,9.443759
2022-09-14T11:08:10.469Z,9.443727
2022-09-14T11:09:10.461Z,9.443686
2022-09-14T11:10:10.456Z,9.443722
2022-09-14T11:11:11.550Z,9.443645
2022-09-14T11:12:11.429Z,9.443622
2022-09-14T11:13:10.429Z,9.443681
2022-09-14T11:14:10.501Z,9.443659
2022-09-14T11:15:10.457Z,9.443701
2022-09-14T11:16:10.427Z,9.443694
2022-09-14T11:17:10.388Z,9.443621
2022-09-14T11:18:10.385Z,9.443630
2022-09-14T11:19:10.428Z,9.443650
2022-09-14T11:20:10.421Z,9.443792
2022-09-14T11:21:10.401Z,9.443667
2022-09-14T11:22:10.513Z,9.443658
2022-09-14T11:23:10.417Z,9.443717
2022-09-14T11:24:10.372Z,9.443707
2022-09-14T11:25:10.337Z,9.443684
2022-09-14T11:26:10.377Z,9.443654
2022-09-14T11:27:10.469Z,9.443677
2022-09-14T11:28:10.399Z,9.443671
2022-09-14T11:29:10.347Z,9.443694
2022-09-14T11:30:10.310Z,9.443629
2022-09-14T11:31:10.385Z,9.443654
2022-09-14T11:32:21.062Z,9.443673
2022-09-14T11:33:12.282Z,9.443650
2022-09-14T11:34:10.328Z,9.443691
2022-09-14T11:35:10.326Z,9.443821
2022-09-14T11:36:10.274Z,9.443691
2022-09-14T11:37:10.292Z,9.443527
2022-09-14T11:38:10.249Z,9.443636
2022-09-14T11:39:10.249Z,9.443673
2022-09-14T11:40:10.509Z,9.443691
2022-09-14T11:41:10.245Z,9.443697
2022-09-14T11:42:10.222Z,9.443695
2022-09-14T11:43:10.216Z,9.443653
2022-09-14T11:44:10.258Z,9.443667